Newburg, Illinois
Current Conditions -  °F | °C
As of 11:54 PM on Thursday 18 Dec 2014 (Local Time) from KDEC Reporting Station
Overcast Overcast  
Wind Chill: 27°   Ceiling: 4700
Heat Index: 27°   Visibility: 7mi
Dew Point: 22°   Wind: 0mph
Humidity: 81%   Direction: NA
Pressure: 30.29"   Gusts: NA
Location:  40.0084°N, 88.8268°W
Report Text: KDEC 190554Z AUTO 00000KT 7SM OVC047 M03/M06 A3029 RMK AO2 SLP268 T10281056 11017 21044 410171050 53003 TSNO
Loading
Personal Weather Stations






























Interactive Weather Map New forecast layout! Learn more

10-Day Weather Forecast

Advertisements
Track Severe Weather on mobile